Muribeca dos Guararapes, Brazil
Current Conditions -  °F | °C
As of 8:00 PM on Friday 19 Dec 2014 (Local Time) from SBRF Reporting Station
Scattered Clouds Scattered Clouds  
Wind Chill: 81°   Ceiling: Unl
Heat Index: 85°   Visibility: 6mi
Dew Point: 72°   Wind: 7mph
Humidity: 74%   Direction: 50°NE
Pressure: 29.94"   Gusts: NA
Location:  8.15°S, 34.97°W
Report Text: SBRF 192300Z 05006KT 9999 SCT023 27/22 Q1014
Loading
Personal Weather Stations






























Interactive Weather Map New forecast layout! Learn more

10-Day Weather Forecast

Advertisements
Track Severe Weather on mobile